Time;durP1;ratioP1;P1;durP2;ratioP2;P2;SDS_P1;SDS_P2;PMS_P1;PMS_P2;Temp;Humidity;BMP_temperature;BMP_pressure;BME280_temperature;BME280_humidity;BME280_pressure;Samples;Min_cycle;Max_cycle;Signal;HPM_P1;HPM_P2
2023/04/29 00:03:31;;;;;;;8.27;7.57;;;14.30;99.90;;;;;;10406426;28;20241;-84
2023/04/29 00:08:33;;;;;;;6.80;6.00;;;14.30;99.90;;;;;;10408899;28;20250;-83
2023/04/29 00:13:36;;;;;;;7.07;6.57;;;14.40;99.90;;;;;;10421726;28;20245;-82
2023/04/29 00:18:39;;;;;;;6.07;5.77;;;14.30;99.90;;;;;;10409762;28;20198;-81
2023/04/29 00:23:41;;;;;;;6.37;5.90;;;14.30;99.90;;;;;;10368839;28;20219;-81
2023/04/29 00:28:43;;;;;;;6.00;5.60;;;14.40;99.90;;;;;;10406374;28;20206;-82
2023/04/29 00:33:47;;;;;;;6.20;5.90;;;14.40;99.90;;;;;;10407615;28;20214;-81
2023/04/29 00:38:49;;;;;;;4.97;4.77;;;14.40;99.90;;;;;;10390508;28;20199;-82
2023/04/29 00:43:51;;;;;;;5.20;4.97;;;14.30;99.90;;;;;;10407084;28;20261;-82
2023/04/29 00:48:55;;;;;;;5.30;5.10;;;14.30;99.90;;;;;;10406164;28;20218;-82
2023/04/29 00:53:57;;;;;;;5.70;5.13;;;14.20;99.90;;;;;;10406762;28;20345;-83
2023/04/29 00:59:01;;;;;;;6.73;6.30;;;14.20;99.90;;;;;;10401482;28;20199;-84
2023/04/29 01:04:06;;;;;;;7.20;6.57;;;14.20;99.90;;;;;;10379533;28;20230;-83
2023/04/29 01:09:23;;;;;;;6.80;6.20;;;14.20;99.90;;;;;;10400197;28;20265;-84
2023/04/29 01:14:26;;;;;;;6.00;5.60;;;14.10;99.90;;;;;;10383911;28;20301;-83
2023/04/29 01:19:44;;;;;;;7.00;6.60;;;14.10;99.90;;;;;;10398468;28;20198;-84
2023/04/29 01:24:48;;;;;;;5.27;5.07;;;14.10;99.90;;;;;;10342626;28;20322;-84
2023/04/29 01:29:58;;;;;;;5.40;5.10;;;14.10;99.90;;;;;;10399594;28;20701;-84
2023/04/29 01:35:08;;;;;;;4.90;4.57;;;14.10;99.90;;;;;;10376881;28;20221;-84
2023/04/29 01:40:17;;;;;;;6.27;5.77;;;14.10;99.90;;;;;;10381359;28;20199;-84
2023/04/29 01:45:34;;;;;;;5.10;4.87;;;14.00;99.90;;;;;;10361927;28;20313;-85
2023/04/29 01:50:36;;;;;;;5.17;4.97;;;14.00;99.90;;;;;;10398416;28;20705;-83
2023/04/29 01:55:50;;;;;;;5.97;5.57;;;14.00;99.90;;;;;;10381590;28;20221;-84
2023/04/29 02:01:03;;;;;;;5.77;5.47;;;14.00;99.90;;;;;;10381964;28;20191;-84
2023/04/29 02:06:07;;;;;;;5.70;5.40;;;14.00;99.90;;;;;;10397580;28;20253;-84
2023/04/29 02:11:12;;;;;;;5.40;5.00;;;13.90;99.90;;;;;;10380336;28;20215;-83
2023/04/29 02:16:16;;;;;;;6.00;5.53;;;13.90;99.90;;;;;;10382037;28;20195;-84
2023/04/29 02:21:38;;;;;;;5.47;5.07;;;13.90;99.90;;;;;;10381585;28;20257;-83
2023/04/29 02:26:42;;;;;;;5.50;5.20;;;13.90;99.90;;;;;;10397451;28;20620;-84
2023/04/29 02:31:44;;;;;;;6.03;5.63;;;13.80;99.90;;;;;;10376051;28;20226;-84
2023/04/29 02:36:46;;;;;;;5.40;5.10;;;13.80;99.90;;;;;;10378035;28;20202;-84
2023/04/29 02:41:50;;;;;;;6.47;5.87;;;13.80;99.90;;;;;;10380579;28;20218;-84
2023/04/29 02:46:52;;;;;;;5.77;5.37;;;13.70;99.90;;;;;;10413936;28;20630;-84
2023/04/29 02:51:54;;;;;;;6.13;5.60;;;13.70;99.90;;;;;;10396879;28;20215;-85
2023/04/29 02:56:58;;;;;;;5.77;5.37;;;13.60;99.90;;;;;;10380275;28;20203;-84
2023/04/29 03:02:00;;;;;;;6.67;6.17;;;13.60;99.90;;;;;;10380243;28;20214;-84
2023/04/29 03:07:03;;;;;;;17.53;12.67;;;13.50;99.90;;;;;;10380299;28;20634;-84
2023/04/29 03:12:07;;;;;;;13.87;10.60;;;13.50;99.90;;;;;;10379304;28;20301;-84
2023/04/29 03:17:09;;;;;;;7.77;7.07;;;13.40;99.90;;;;;;10395740;28;20655;-84
2023/04/29 03:22:12;;;;;;;10.13;7.63;;;13.40;99.90;;;;;;10401972;22;20245;-82
2023/04/29 03:27:19;;;;;;;6.97;6.33;;;13.40;99.90;;;;;;10399574;28;20187;-81
2023/04/29 03:32:21;;;;;;;5.50;5.00;;;13.30;99.90;;;;;;10416446;28;20694;-81
2023/04/29 03:37:23;;;;;;;5.37;4.80;;;13.30;99.90;;;;;;10383688;28;20199;-81
2023/04/29 03:42:34;;;;;;;5.53;5.03;;;13.30;99.90;;;;;;10397300;28;20238;-81
2023/04/29 03:47:36;;;;;;;6.17;5.70;;;13.20;99.90;;;;;;10397589;28;20194;-79
2023/04/29 03:52:39;;;;;;;6.50;5.93;;;13.20;99.90;;;;;;10420458;28;20218;-83
2023/04/29 03:57:47;;;;;;;6.57;5.70;;;13.10;99.90;;;;;;10402693;28;20262;-83
2023/04/29 04:02:52;;;;;;;6.27;5.77;;;13.10;99.90;;;;;;10407777;28;20303;-81
2023/04/29 04:07:55;;;;;;;6.07;5.67;;;13.00;99.90;;;;;;10407923;28;20198;-83
2023/04/29 04:13:14;;;;;;;6.37;5.97;;;13.00;99.90;;;;;;10400198;28;20218;-81
2023/04/29 04:18:18;;;;;;;6.10;5.60;;;13.00;99.90;;;;;;10397336;28;20191;-80
2023/04/29 04:23:20;;;;;;;5.90;5.57;;;13.00;99.90;;;;;;10402970;28;20767;-80
2023/04/29 04:28:24;;;;;;;8.53;7.93;;;12.90;99.90;;;;;;10386860;28;20221;-83
2023/04/29 04:33:34;;;;;;;6.60;6.00;;;12.90;99.90;;;;;;10404204;28;20587;-83
2023/04/29 04:38:36;;;;;;;6.67;5.90;;;12.90;99.90;;;;;;10402871;28;20260;-82
2023/04/29 04:43:45;;;;;;;6.40;6.00;;;12.80;99.90;;;;;;10398835;28;20228;-82
2023/04/29 04:48:57;;;;;;;6.33;5.93;;;12.80;99.90;;;;;;10401466;28;20224;-82
2023/04/29 04:53:59;;;;;;;7.77;7.20;;;12.80;99.90;;;;;;10404590;28;20222;-83
2023/04/29 04:59:07;;;;;;;6.90;6.37;;;12.80;99.90;;;;;;10390985;28;20511;-81
2023/04/29 05:04:12;;;;;;;6.40;6.00;;;12.80;99.90;;;;;;10406250;28;20626;-83
2023/04/29 05:09:14;;;;;;;5.30;4.83;;;12.80;99.90;;;;;;10407359;28;20199;-83
2023/04/29 05:14:18;;;;;;;7.00;6.30;;;12.80;99.90;;;;;;10405264;28;20343;-82
2023/04/29 05:19:21;;;;;;;6.00;5.70;;;12.90;99.90;;;;;;10394981;28;20191;-82
2023/04/29 05:24:23;;;;;;;8.43;7.77;;;13.00;99.90;;;;;;10411167;28;20335;-83
2023/04/29 05:29:27;;;;;;;8.17;7.67;;;13.00;99.90;;;;;;10399635;28;20225;-81
2023/04/29 05:34:34;;;;;;;8.73;8.03;;;13.20;99.90;;;;;;10402987;28;20257;-82
2023/04/29 05:39:36;;;;;;;7.77;7.17;;;13.40;99.90;;;;;;10399752;28;20187;-82
2023/04/29 05:44:47;;;;;;;8.73;8.20;;;13.60;99.90;;;;;;10359654;28;20223;-81
2023/04/29 05:49:52;;;;;;;10.60;9.53;;;13.80;99.90;;;;;;10402475;28;20218;-81
2023/04/29 05:54:54;;;;;;;9.13;8.47;;;13.90;99.90;;;;;;10402229;28;20221;-83
2023/04/29 06:00:00;;;;;;;8.87;8.17;;;14.10;99.90;;;;;;10402670;28;20557;-81
2023/04/29 06:05:03;;;;;;;7.77;7.27;;;14.30;99.90;;;;;;10402239;28;20215;-83
2023/04/29 06:10:44;;;;;;;8.20;7.70;;;14.40;99.90;;;;;;10392287;28;20267;-81
2023/04/29 06:15:50;;;;;;;7.30;6.80;;;14.60;99.90;;;;;;10414455;28;20222;-81
2023/04/29 06:20:54;;;;;;;6.70;6.30;;;14.80;99.90;;;;;;10393652;28;20210;-82
2023/04/29 06:25:58;;;;;;;6.80;6.40;;;14.90;99.90;;;;;;10399745;28;20343;-82
2023/04/29 06:31:02;;;;;;;7.27;6.87;;;15.00;99.90;;;;;;10419313;28;20217;-83
2023/04/29 06:36:08;;;;;;;7.90;7.20;;;15.00;99.90;;;;;;10402904;28;20284;-83
2023/04/29 06:41:33;;;;;;;7.33;6.93;;;15.10;99.90;;;;;;10394123;23;20218;-82
2023/04/29 06:47:19;;;;;;;5.67;5.27;;;15.30;99.90;;;;;;10394805;28;20206;-83
2023/04/29 06:52:33;;;;;;;6.23;5.90;;;15.40;99.90;;;;;;10403792;28;20226;-83
2023/04/29 06:57:35;;;;;;;5.67;5.17;;;15.50;99.90;;;;;;10404138;28;20232;-84
2023/04/29 07:02:39;;;;;;;4.97;4.67;;;15.60;99.90;;;;;;10420924;28;20701;-83
2023/04/29 07:07:41;;;;;;;4.17;3.87;;;15.50;99.90;;;;;;10404503;28;20203;-84
2023/04/29 07:12:43;;;;;;;4.37;4.07;;;15.40;99.90;;;;;;10402173;28;20777;-83
2023/04/29 07:17:46;;;;;;;3.90;3.70;;;15.40;99.90;;;;;;10400119;28;20226;-83
2023/04/29 07:22:48;;;;;;;4.30;4.00;;;15.40;99.90;;;;;;10416423;28;20563;-82
2023/04/29 07:27:51;;;;;;;4.70;4.40;;;15.40;99.90;;;;;;10391581;28;20211;-83
2023/04/29 07:32:55;;;;;;;5.03;3.73;;;15.50;99.90;;;;;;10388183;28;20230;-82
2023/04/29 07:37:57;;;;;;;4.30;4.00;;;15.60;99.90;;;;;;10384817;28;20644;-81
2023/04/29 07:43:03;;;;;;;3.90;3.70;;;15.90;99.90;;;;;;10394231;28;20668;-82
2023/04/29 07:48:07;;;;;;;3.50;3.30;;;16.20;99.90;;;;;;10408531;28;20256;-82
2023/04/29 07:53:09;;;;;;;3.10;3.00;;;16.20;99.90;;;;;;10410241;28;20227;-83
2023/04/29 07:58:11;;;;;;;3.43;3.23;;;16.20;99.90;;;;;;10403499;28;20206;-82
2023/04/29 08:03:15;;;;;;;166.27;59.03;;;16.20;99.90;;;;;;10405720;28;20284;-82
2023/04/29 08:08:18;;;;;;;15.20;8.87;;;16.20;99.90;;;;;;10412006;28;20202;-82
2023/04/29 08:13:20;;;;;;;37.10;17.37;;;16.10;99.90;;;;;;10397993;28;20310;-82
2023/04/29 08:18:24;;;;;;;144.97;55.17;;;15.90;99.90;;;;;;10398595;28;20237;-82
2023/04/29 08:23:26;;;;;;;26.77;16.10;;;15.80;99.90;;;;;;10420137;28;20500;-82
2023/04/29 08:28:28;;;;;;;58.77;29.07;;;15.70;99.90;;;;;;10401746;28;20194;-82
2023/04/29 08:33:32;;;;;;;129.13;61.13;;;15.70;99.90;;;;;;10433923;28;20253;-83
2023/04/29 08:38:34;;;;;;;8.03;7.33;;;15.70;99.90;;;;;;10430456;28;20194;-82
2023/04/29 08:43:36;;;;;;;6.10;5.60;;;15.50;99.90;;;;;;10423731;28;20309;-82
2023/04/29 08:48:40;;;;;;;5.20;4.90;;;15.40;99.90;;;;;;10425644;28;20186;-83
2023/04/29 08:53:42;;;;;;;5.93;5.53;;;15.20;99.90;;;;;;10394868;28;20214;-83
2023/04/29 08:58:45;;;;;;;5.57;5.17;;;15.10;99.90;;;;;;10397001;28;20202;-81
2023/04/29 09:03:54;;;;;;;6.37;5.83;;;15.00;99.90;;;;;;10405610;28;20211;-81
2023/04/29 09:08:58;;;;;;;5.30;5.00;;;15.00;99.90;;;;;;10386759;28;20199;-82
2023/04/29 09:14:01;;;;;;;6.10;5.63;;;15.10;99.90;;;;;;10399274;28;20226;-83
2023/04/29 09:19:05;;;;;;;6.27;5.77;;;15.30;99.90;;;;;;10404069;28;20403;-83
2023/04/29 09:24:07;;;;;;;5.10;4.90;;;15.50;99.90;;;;;;10428450;22;20227;-81
2023/04/29 09:29:10;;;;;;;6.27;5.93;;;15.60;99.90;;;;;;10381376;28;20202;-79
2023/04/29 09:34:15;;;;;;;6.57;5.97;;;15.70;99.90;;;;;;10393159;28;20693;-79
2023/04/29 09:39:18;;;;;;;6.70;6.30;;;15.80;99.90;;;;;;10383674;28;20610;-79
2023/04/29 09:44:22;;;;;;;5.23;4.93;;;16.10;99.90;;;;;;10374825;28;20234;-80
2023/04/29 09:49:27;;;;;;;5.57;5.27;;;16.30;99.90;;;;;;10354366;28;20302;-80
2023/04/29 09:54:31;;;;;;;4.77;4.47;;;16.40;99.90;;;;;;10357919;28;20223;-80
2023/04/29 09:59:34;;;;;;;4.37;4.10;;;16.50;99.90;;;;;;10383075;28;20207;-81
2023/04/29 10:04:41;;;;;;;5.07;4.67;;;16.80;99.90;;;;;;10352772;28;20212;-80
2023/04/29 10:09:45;;;;;;;4.50;4.10;;;16.90;99.90;;;;;;10373668;28;20745;-81
2023/04/29 10:14:54;;;;;;;5.20;4.37;;;17.30;99.90;;;;;;10366947;28;20218;-80
2023/04/29 10:20:04;;;;;;;3.73;3.53;;;17.40;99.90;;;;;;10375761;28;20199;-81
2023/04/29 10:25:09;;;;;;;3.97;3.73;;;17.30;99.90;;;;;;10401548;28;20229;-81
2023/04/29 10:30:20;;;;;;;3.70;3.50;;;17.20;99.90;;;;;;10394090;28;20215;-82
2023/04/29 10:35:24;;;;;;;3.97;3.67;;;17.40;99.90;;;;;;10365886;28;20231;-78
2023/04/29 10:40:31;;;;;;;3.63;3.43;;;17.50;99.90;;;;;;10344709;28;20203;-79
2023/04/29 10:45:35;;;;;;;3.40;3.20;;;17.60;99.90;;;;;;10367396;28;20592;-78
2023/04/29 10:51:01;;;;;;;4.23;3.93;;;17.90;99.90;;;;;;10375016;28;20224;-79
2023/04/29 10:56:09;;;;;;;4.00;3.70;;;18.10;99.90;;;;;;10407695;28;20219;-79
2023/04/29 11:01:13;;;;;;;3.90;3.70;;;18.10;99.90;;;;;;10366741;28;20205;-78
2023/04/29 11:06:16;;;;;;;4.30;4.00;;;18.30;99.90;;;;;;10398223;28;20582;-79
2023/04/29 11:11:19;;;;;;;3.73;3.43;;;18.50;99.90;;;;;;10375470;28;20207;-78
2023/04/29 11:16:27;;;;;;;3.53;3.27;;;18.50;99.90;;;;;;10378332;28;20295;-79
2023/04/29 11:21:31;;;;;;;3.07;2.80;;;18.40;99.90;;;;;;10420095;28;20190;-79
2023/04/29 11:26:34;;;;;;;3.47;3.27;;;18.40;99.90;;;;;;10391020;28;20488;-78
2023/04/29 11:31:37;;;;;;;4.83;3.30;;;18.30;99.90;;;;;;10386832;28;20297;-80
2023/04/29 11:36:41;;;;;;;3.07;2.87;;;18.20;99.90;;;;;;10381334;28;20218;-79
2023/04/29 11:41:44;;;;;;;2.67;2.57;;;18.10;99.90;;;;;;10367556;28;20202;-79
2023/04/29 11:46:46;;;;;;;2.40;2.30;;;18.20;99.90;;;;;;10389177;28;20221;-79
2023/04/29 11:51:50;;;;;;;2.97;2.83;;;18.20;99.90;;;;;;10396473;28;20226;-80
2023/04/29 11:56:54;;;;;;;3.77;3.57;;;18.50;99.90;;;;;;10383349;28;20203;-79
2023/04/29 12:01:59;;;;;;;4.80;4.00;;;18.50;99.90;;;;;;10388840;28;20215;-79
2023/04/29 12:07:03;;;;;;;5.97;5.47;;;18.30;99.90;;;;;;10401244;28;20198;-79
2023/04/29 12:12:06;;;;;;;4.10;3.80;;;18.00;99.90;;;;;;10421560;28;20218;-79
2023/04/29 12:17:09;;;;;;;4.67;4.27;;;17.80;99.90;;;;;;10395354;28;20201;-79
2023/04/29 12:22:13;;;;;;;5.43;5.03;;;17.60;99.90;;;;;;10393543;28;20220;-80
2023/04/29 12:27:17;;;;;;;6.43;5.93;;;17.50;99.90;;;;;;10390266;28;20203;-79
2023/04/29 12:32:25;;;;;;;5.77;5.30;;;17.40;99.90;;;;;;10363701;28;20597;-80
2023/04/29 12:37:28;;;;;;;6.20;5.60;;;17.30;99.90;;;;;;10351062;28;20222;-80
2023/04/29 12:42:33;;;;;;;6.60;6.10;;;17.50;99.90;;;;;;10381665;28;20214;-78
2023/04/29 12:47:35;;;;;;;6.67;6.17;;;17.70;99.90;;;;;;10391483;28;20528;-79
2023/04/29 12:52:39;;;;;;;7.63;7.03;;;18.00;99.90;;;;;;10379980;28;20230;-79
2023/04/29 12:57:41;;;;;;;7.30;6.60;;;18.10;99.90;;;;;;10395902;28;20200;-80
2023/04/29 13:02:43;;;;;;;6.57;6.07;;;18.20;99.90;;;;;;10400320;28;20208;-79
2023/04/29 13:07:47;;;;;;;6.80;6.20;;;18.20;99.90;;;;;;10399548;28;20205;-80
2023/04/29 13:12:49;;;;;;;7.17;6.57;;;18.10;99.90;;;;;;10410983;28;20643;-80
2023/04/29 13:17:51;;;;;;;8.10;7.50;;;17.90;99.90;;;;;;10404887;28;20211;-80
2023/04/29 13:22:55;;;;;;;8.13;7.37;;;17.80;99.90;;;;;;10411690;28;20261;-81
2023/04/29 13:27:57;;;;;;;7.60;6.90;;;17.70;99.90;;;;;;10430598;28;20226;-80
2023/04/29 13:33:00;;;;;;;7.50;6.97;;;17.70;99.90;;;;;;10423541;28;20223;-80
2023/04/29 13:38:04;;;;;;;9.63;8.77;;;17.70;99.90;;;;;;10386828;28;20202;-80
2023/04/29 13:43:06;;;;;;;8.23;7.33;;;17.60;99.90;;;;;;10412105;28;20214;-79
2023/04/29 13:48:08;;;;;;;8.97;8.17;;;17.60;99.90;;;;;;10451383;28;20199;-79
2023/04/29 13:53:12;;;;;;;8.77;7.97;;;17.60;99.90;;;;;;10422315;28;20252;-79
2023/04/29 13:58:15;;;;;;;9.90;9.00;;;17.60;99.90;;;;;;10399811;28;20229;-80
2023/04/29 14:03:17;;;;;;;10.30;7.80;;;17.60;99.90;;;;;;10422369;28;20576;-80
2023/04/29 14:08:21;;;;;;;10.40;9.60;;;17.60;99.90;;;;;;10396210;28;20225;-79
2023/04/29 14:13:23;;;;;;;8.83;8.03;;;17.50;99.90;;;;;;10411860;28;20219;-80
2023/04/29 14:18:26;;;;;;;10.00;9.10;;;17.40;99.90;;;;;;10369341;28;20195;-80
2023/04/29 14:23:29;;;;;;;11.33;10.40;;;17.20;99.90;;;;;;10413310;28;20223;-78
2023/04/29 14:28:31;;;;;;;8.63;8.03;;;17.20;99.90;;;;;;10365370;28;20206;-79
2023/04/29 14:33:33;;;;;;;10.50;9.60;;;17.10;99.90;;;;;;10372249;28;20737;-80
2023/04/29 14:38:37;;;;;;;11.57;8.00;;;17.10;99.90;;;;;;10388064;28;20214;-80
2023/04/29 14:43:40;;;;;;;9.00;8.27;;;17.10;99.90;;;;;;10365410;28;20214;-79
2023/04/29 14:48:42;;;;;;;10.70;9.83;;;17.10;99.90;;;;;;10374662;28;20222;-79
2023/04/29 14:53:46;;;;;;;9.63;8.70;;;17.10;99.90;;;;;;10393532;28;20338;-79
2023/04/29 14:58:48;;;;;;;9.60;8.70;;;17.10;99.90;;;;;;10381857;28;20603;-79
2023/04/29 15:03:50;;;;;;;9.63;8.70;;;17.10;99.90;;;;;;10381278;28;20697;-79
2023/04/29 15:08:53;;;;;;;10.47;9.60;;;17.10;99.90;;;;;;10401387;28;20194;-80
2023/04/29 15:13:56;;;;;;;10.93;9.87;;;17.20;99.90;;;;;;10396401;28;20214;-80
2023/04/29 15:18:58;;;;;;;9.67;8.97;;;17.30;99.90;;;;;;10394826;28;20264;-79
2023/04/29 15:24:02;;;;;;;8.77;7.97;;;17.40;99.90;;;;;;10419528;28;20211;-80
2023/04/29 15:29:05;;;;;;;9.30;8.57;;;17.60;99.90;;;;;;10352712;28;20233;-79
2023/04/29 15:34:07;;;;;;;9.57;8.77;;;17.50;99.90;;;;;;10377732;28;20221;-79
2023/04/29 15:39:11;;;;;;;10.17;9.20;;;17.30;99.90;;;;;;10418718;28;20194;-80
2023/04/29 15:44:13;;;;;;;9.90;9.03;;;17.20;99.90;;;;;;10373730;28;20238;-80
2023/04/29 15:49:15;;;;;;;10.43;9.53;;;17.10;99.90;;;;;;10406075;28;20191;-80
2023/04/29 15:54:18;;;;;;;9.70;8.80;;;17.00;99.90;;;;;;10426390;28;20450;-80
2023/04/29 15:59:20;;;;;;;10.67;9.77;;;16.80;99.90;;;;;;10357802;28;20223;-79
2023/04/29 16:04:23;;;;;;;9.63;8.73;;;16.70;99.90;;;;;;10392070;28;20238;-79
2023/04/29 16:09:29;;;;;;;9.77;8.97;;;16.70;99.90;;;;;;10409034;28;20913;-80
2023/04/29 16:14:31;;;;;;;9.23;8.33;;;16.60;99.90;;;;;;10391969;28;20222;-79
2023/04/29 16:19:33;;;;;;;10.90;9.70;;;16.70;99.90;;;;;;10409247;28;20205;-80
2023/04/29 16:24:37;;;;;;;9.40;8.60;;;16.60;99.90;;;;;;10371830;28;20229;-80
2023/04/29 16:29:42;;;;;;;9.30;8.57;;;16.60;99.90;;;;;;10396221;28;20191;-81
2023/04/29 16:34:44;;;;;;;9.77;8.90;;;16.50;99.90;;;;;;10338299;28;20216;-80
2023/04/29 16:39:49;;;;;;;10.73;9.80;;;16.40;99.90;;;;;;10354989;28;20206;-80
2023/04/29 16:44:51;;;;;;;9.33;8.57;;;16.30;99.90;;;;;;10316766;28;20307;-79
2023/04/29 16:49:54;;;;;;;9.20;8.40;;;16.30;99.90;;;;;;10381181;28;20721;-79
2023/04/29 16:55:00;;;;;;;8.20;7.50;;;16.20;99.90;;;;;;10382804;28;20223;-79
2023/04/29 17:00:03;;;;;;;8.80;8.07;;;16.20;99.90;;;;;;10381129;28;20206;-79
2023/04/29 17:05:07;;;;;;;8.97;8.13;;;16.10;99.90;;;;;;10421928;28;20671;-80
2023/04/29 17:10:11;;;;;;;8.93;8.23;;;16.10;99.90;;;;;;10382569;28;20261;-80
2023/04/29 17:15:13;;;;;;;8.00;7.30;;;16.10;99.90;;;;;;10366437;28;20224;-79
2023/04/29 17:20:15;;;;;;;7.57;6.97;;;16.00;99.90;;;;;;10420745;28;20209;-79
2023/04/29 17:25:21;;;;;;;8.93;8.13;;;16.00;99.90;;;;;;10419348;28;20774;-79
2023/04/29 17:30:23;;;;;;;9.10;8.30;;;15.90;99.90;;;;;;10365071;28;20574;-79
2023/04/29 17:35:25;;;;;;;8.27;7.67;;;15.90;99.90;;;;;;10420850;28;20363;-80
2023/04/29 17:40:29;;;;;;;8.30;7.60;;;15.80;99.90;;;;;;10396763;28;20198;-80
2023/04/29 17:45:31;;;;;;;9.27;8.37;;;15.80;99.90;;;;;;10388203;28;20298;-79
2023/04/29 17:50:33;;;;;;;8.10;7.50;;;15.70;99.90;;;;;;10388299;28;20195;-79
2023/04/29 17:55:39;;;;;;;8.63;7.93;;;15.70;99.90;;;;;;10397790;28;20210;-79
2023/04/29 18:00:41;;;;;;;7.93;7.23;;;15.60;99.90;;;;;;10371915;28;20255;-80
2023/04/29 18:05:45;;;;;;;8.23;7.43;;;15.60;99.90;;;;;;10421338;28;20709;-80
2023/04/29 18:10:48;;;;;;;8.83;8.00;;;15.60;99.90;;;;;;10389507;28;20266;-80
2023/04/29 18:15:51;;;;;;;8.30;7.60;;;15.60;99.90;;;;;;10408236;28;20511;-80
2023/04/29 18:20:54;;;;;;;8.80;8.10;;;15.50;99.90;;;;;;10394743;28;20274;-79
2023/04/29 18:25:58;;;;;;;8.73;8.03;;;15.50;99.90;;;;;;10399568;28;20316;-79
2023/04/29 18:31:00;;;;;;;9.20;8.50;;;15.40;99.90;;;;;;10384199;28;20191;-79
2023/04/29 18:36:02;;;;;;;7.60;6.90;;;15.40;99.90;;;;;;10380309;28;20309;-79
2023/04/29 18:41:07;;;;;;;8.90;8.07;;;15.30;99.90;;;;;;10413803;28;20283;-80
2023/04/29 18:46:09;;;;;;;8.23;7.57;;;15.30;99.90;;;;;;10366355;28;20594;-79
2023/04/29 18:51:11;;;;;;;10.10;7.90;;;15.30;99.90;;;;;;10396444;28;20214;-79
2023/04/29 18:56:15;;;;;;;8.53;7.83;;;15.20;99.90;;;;;;10383767;28;20216;-79
2023/04/29 19:01:17;;;;;;;9.50;8.80;;;15.10;99.90;;;;;;10392594;28;20191;-79
2023/04/29 19:06:19;;;;;;;8.23;7.63;;;15.10;99.90;;;;;;10393594;28;20262;-79
2023/04/29 19:11:25;;;;;;;7.90;7.10;;;15.10;99.90;;;;;;10375954;28;20579;-80
2023/04/29 19:16:27;;;;;;;8.00;7.40;;;15.00;99.90;;;;;;10386856;28;20399;-79
2023/04/29 19:21:29;;;;;;;12.93;11.73;;;15.00;99.90;;;;;;10401880;28;20199;-79
2023/04/29 19:26:32;;;;;;;8.47;7.67;;;14.90;99.90;;;;;;10391772;28;20604;-79
2023/04/29 19:31:35;;;;;;;8.60;7.90;;;14.90;99.90;;;;;;10386785;28;20556;-79
2023/04/29 19:36:37;;;;;;;8.70;7.90;;;14.90;99.90;;;;;;10375605;28;20652;-79
2023/04/29 19:41:40;;;;;;;9.07;8.30;;;14.90;99.90;;;;;;10408610;28;20769;-79
2023/04/29 19:46:42;;;;;;;8.20;7.60;;;14.80;99.90;;;;;;10393017;28;20293;-79
2023/04/29 19:51:44;;;;;;;7.77;7.17;;;14.80;99.90;;;;;;10387111;28;20222;-79
2023/04/29 19:56:48;;;;;;;8.33;7.73;;;14.80;99.90;;;;;;10394915;28;20249;-79
2023/04/29 20:01:51;;;;;;;10.17;9.20;;;14.80;99.90;;;;;;10412449;28;20198;-79
2023/04/29 20:06:53;;;;;;;9.90;9.10;;;14.80;99.90;;;;;;10388170;28;20258;-79
2023/04/29 20:11:56;;;;;;;9.10;8.30;;;14.70;99.90;;;;;;10380616;28;20222;-79
2023/04/29 20:16:58;;;;;;;9.57;8.80;;;14.70;99.90;;;;;;10373723;28;20229;-79
2023/04/29 20:22:01;;;;;;;10.47;9.67;;;14.70;99.90;;;;;;10394638;28;20594;-79
2023/04/29 20:27:05;;;;;;;10.07;8.70;;;14.70;99.90;;;;;;10393378;28;20199;-80
2023/04/29 20:32:07;;;;;;;9.17;8.47;;;14.70;99.90;;;;;;10407113;28;20219;-80
2023/04/29 20:37:09;;;;;;;10.47;9.63;;;14.70;99.90;;;;;;10377289;28;20199;-79
2023/04/29 20:42:15;;;;;;;9.97;9.03;;;14.70;99.90;;;;;;10405795;28;20215;-79
2023/04/29 20:47:18;;;;;;;13.03;9.80;;;14.70;99.90;;;;;;10381016;28;20234;-79
2023/04/29 20:52:21;;;;;;;12.07;10.97;;;14.70;99.90;;;;;;10409902;28;20225;-80
2023/04/29 20:57:24;;;;;;;11.00;10.10;;;14.70;99.90;;;;;;10378408;28;20286;-80
2023/04/29 21:02:26;;;;;;;10.60;9.70;;;14.60;99.90;;;;;;10388709;28;20564;-80
2023/04/29 21:07:28;;;;;;;9.43;8.63;;;14.60;99.90;;;;;;10395874;28;20215;-79
2023/04/29 21:12:32;;;;;;;10.57;9.67;;;14.60;99.90;;;;;;10392875;28;20220;-80
2023/04/29 21:17:34;;;;;;;10.30;9.50;;;14.60;99.90;;;;;;10407376;28;20202;-80
2023/04/29 21:22:36;;;;;;;10.03;9.23;;;14.60;99.90;;;;;;10414266;22;20233;-80
2023/04/29 21:27:40;;;;;;;9.70;8.80;;;14.50;99.90;;;;;;10451644;28;20194;-81
2023/04/29 21:32:42;;;;;;;9.47;8.67;;;14.50;99.90;;;;;;10455002;28;20225;-81
2023/04/29 21:37:44;;;;;;;10.87;9.97;;;14.50;99.90;;;;;;10482797;28;20548;-81
2023/04/29 21:42:49;;;;;;;10.23;9.30;;;14.50;99.90;;;;;;10490251;28;20217;-81
2023/04/29 21:47:54;;;;;;;9.57;8.77;;;14.50;99.90;;;;;;10485815;28;20202;-83
2023/04/29 21:52:56;;;;;;;9.83;8.93;;;14.50;99.90;;;;;;10479813;28;20213;-82
2023/04/29 21:57:59;;;;;;;9.37;8.57;;;14.50;99.90;;;;;;10497377;28;20193;-83
2023/04/29 22:03:02;;;;;;;9.00;8.30;;;14.50;99.90;;;;;;10471319;28;20209;-83
2023/04/29 22:08:05;;;;;;;9.80;9.00;;;14.50;99.90;;;;;;10491670;28;20656;-83
2023/04/29 22:13:09;;;;;;;10.77;9.77;;;14.50;99.90;;;;;;10484244;28;20251;-83
2023/04/29 22:18:11;;;;;;;9.70;9.00;;;14.50;99.90;;;;;;10487436;28;20202;-83
2023/04/29 22:23:13;;;;;;;10.20;9.30;;;14.40;99.90;;;;;;10468108;28;20225;-82
2023/04/29 22:28:17;;;;;;;9.63;8.83;;;14.40;99.90;;;;;;10487751;28;20205;-82
2023/04/29 22:33:19;;;;;;;9.47;8.67;;;14.40;99.90;;;;;;10466654;28;20660;-82
2023/04/29 22:38:21;;;;;;;9.13;8.33;;;14.40;99.90;;;;;;10466021;28;20251;-82
2023/04/29 22:43:24;;;;;;;9.70;8.90;;;14.40;99.90;;;;;;10485003;28;20272;-83
2023/04/29 22:48:27;;;;;;;9.67;8.73;;;14.40;99.90;;;;;;10485460;28;20194;-82
2023/04/29 22:53:29;;;;;;;13.93;9.07;;;14.40;99.90;;;;;;10485563;28;20221;-83
2023/04/29 22:58:33;;;;;;;9.70;9.00;;;14.40;99.90;;;;;;10491123;28;20194;-82
2023/04/29 23:03:35;;;;;;;9.70;8.63;;;14.40;99.90;;;;;;10500957;28;20245;-84
2023/04/29 23:08:37;;;;;;;8.43;7.63;;;14.40;99.90;;;;;;10501579;28;20671;-84
2023/04/29 23:13:41;;;;;;;9.10;8.40;;;14.40;99.90;;;;;;10514678;28;20224;-84
2023/04/29 23:18:43;;;;;;;9.80;8.97;;;14.40;99.90;;;;;;10503714;28;20200;-84
2023/04/29 23:23:45;;;;;;;8.47;7.77;;;14.40;99.90;;;;;;10480937;28;20220;-83
2023/04/29 23:28:48;;;;;;;7.93;7.33;;;14.30;99.90;;;;;;10458473;28;20197;-83
2023/04/29 23:33:51;;;;;;;9.00;8.20;;;14.30;99.90;;;;;;10490290;28;20221;-83
2023/04/29 23:38:53;;;;;;;8.60;7.80;;;14.30;99.90;;;;;;10454934;28;20191;-83
2023/04/29 23:43:59;;;;;;;8.23;7.23;;;14.30;99.90;;;;;;10463045;28;20251;-84
2023/04/29 23:49:01;;;;;;;7.53;6.83;;;14.30;99.90;;;;;;10483515;28;20567;-84
2023/04/29 23:54:04;;;;;;;7.97;7.37;;;14.20;99.90;;;;;;10465999;28;20249;-83
2023/04/29 23:59:07;;;;;;;8.00;7.23;;;14.20;99.90;;;;;;10458469;28;20197;-83
